createdAt,value
2023-01-27T06:23:01.000Z,0.1
2023-01-27T06:25:00.661Z,0.2
2023-01-27T06:26:00.630Z,0.3
2023-01-27T06:28:01.107Z,0.4
2023-01-27T06:29:00.632Z,0.5
2023-01-27T06:30:06.465Z,0.5
2023-01-27T06:31:00.671Z,0.7
2023-01-27T06:32:00.691Z,0.8
2023-01-27T06:33:00.840Z,1.1
2023-01-27T06:34:00.701Z,1.3
2023-01-27T06:35:00.683Z,1.6
2023-01-27T06:36:00.640Z,1.9
2023-01-27T06:37:00.647Z,2.3
2023-01-27T06:38:00.848Z,2.7
2023-01-27T06:39:00.956Z,3.2
2023-01-27T06:40:00.657Z,3.7
2023-01-27T06:41:00.640Z,4.5
2023-01-27T06:42:00.629Z,5.4
2023-01-27T06:43:00.882Z,6.7
2023-01-27T06:44:00.658Z,7.9
2023-01-27T06:45:01.298Z,9.2
2023-01-27T06:46:01.352Z,11.0
2023-01-27T06:47:00.638Z,12.8
2023-01-27T06:48:01.114Z,15.4
2023-01-27T06:49:00.688Z,18.0
2023-01-27T06:50:00.657Z,20.6
2023-01-27T06:51:00.638Z,24.8
2023-01-27T06:52:00.658Z,29.0
2023-01-27T06:53:00.859Z,34.8
2023-01-27T06:54:01.172Z,40.6
2023-01-27T06:55:02.228Z,46.4
2023-01-27T06:56:00.679Z,53.9
2023-01-27T06:57:00.641Z,61.3
2023-01-27T06:58:07.131Z,72.2
2023-01-27T06:59:00.694Z,83.1
2023-01-27T07:00:01.748Z,93.9
2023-01-27T07:01:01.746Z,109.9
2023-01-27T07:02:00.648Z,125.8
2023-01-27T07:03:02.603Z,147.5
2023-01-27T07:04:00.710Z,169.1
2023-01-27T07:05:02.271Z,190.8
2023-01-27T07:06:00.654Z,220.0
2023-01-27T07:07:00.650Z,249.2
2023-01-27T07:08:01.191Z,287.9
2023-01-27T07:09:00.651Z,326.5
2023-01-27T07:10:00.727Z,365.2
2023-01-27T07:11:00.668Z,415.5
2023-01-27T07:12:00.639Z,465.9
2023-01-27T07:13:00.970Z,530.7
2023-01-27T07:14:00.651Z,595.6
2023-01-27T07:15:01.557Z,660.5
2023-01-27T07:16:00.957Z,744.7
2023-01-27T07:17:00.647Z,828.9
2023-01-27T07:18:01.044Z,927.4
2023-01-27T07:19:00.639Z,1025.9
2023-01-27T07:20:00.717Z,1124.5
2023-01-27T07:21:00.647Z,1237.6
2023-01-27T07:22:00.641Z,1350.7
2023-01-27T07:23:00.868Z,1483.0
2023-01-27T07:24:00.682Z,1615.3
2023-01-27T07:25:01.315Z,1747.5
2023-01-27T07:26:00.998Z,1899.5
2023-01-27T07:27:00.675Z,2051.4
2023-01-27T07:28:01.139Z,2227.7
2023-01-27T07:29:00.647Z,2404.1
2023-01-27T07:30:01.593Z,2580.4
2023-01-27T07:31:00.664Z,2777.3
2023-01-27T07:32:00.705Z,2974.1
2023-01-27T07:33:00.856Z,3199.0
2023-01-27T07:34:00.648Z,3423.9
2023-01-27T07:35:01.398Z,3648.7
2023-01-27T07:36:00.647Z,3875.3
2023-01-27T07:37:00.653Z,4101.9
2023-01-27T07:38:00.866Z,4328.3
2023-01-27T07:39:00.645Z,4554.6
2023-01-27T07:40:00.702Z,4780.9
2023-01-27T07:41:00.657Z,4999.5
2023-01-27T07:42:00.651Z,5218.1
2023-01-27T07:43:02.292Z,5408.8
2023-01-27T07:44:00.656Z,5599.5
2023-01-27T07:45:01.586Z,5790.1
2023-01-27T07:46:00.699Z,5926.5
2023-01-27T07:47:00.664Z,6062.9
2023-01-27T07:48:06.129Z,6135.3
2023-01-27T07:49:00.652Z,6207.7
2023-01-27T07:50:01.020Z,6280.1
2023-01-27T07:51:00.660Z,6372.5
2023-01-27T07:52:00.660Z,6464.8
2023-01-27T07:53:00.870Z,6624.4
2023-01-27T07:54:02.065Z,6784.0
2023-01-27T07:55:00.914Z,6943.6
2023-01-27T07:56:00.663Z,7206.7
2023-01-27T07:57:00.663Z,7469.9
2023-01-27T07:58:00.862Z,7835.0
2023-01-27T07:59:00.681Z,8200.1
2023-01-27T08:00:01.606Z,8565.3
2023-01-27T08:01:00.718Z,8998.9
2023-01-27T08:02:01.679Z,9432.5
2023-01-27T08:03:01.925Z,9851.3
2023-01-27T08:04:00.661Z,10270.2
2023-01-27T08:05:01.581Z,10689.1
2023-01-27T08:06:00.657Z,11048.6
2023-01-27T08:07:00.677Z,11408.1
2023-01-27T08:08:00.881Z,11748.8
2023-01-27T08:09:00.660Z,12089.5
2023-01-27T08:10:00.728Z,12430.1
2023-01-27T08:11:01.789Z,12766.1
2023-01-27T08:12:00.652Z,13102.0
2023-01-27T08:13:00.918Z,13391.1
2023-01-27T08:14:00.661Z,13680.3
2023-01-27T08:15:01.632Z,13969.4
2023-01-27T08:16:00.674Z,14269.4
2023-01-27T08:17:00.677Z,14569.4
2023-01-27T08:18:00.893Z,14974.9
2023-01-27T08:19:00.660Z,15380.3
2023-01-27T08:20:00.712Z,15785.8
2023-01-27T08:21:00.673Z,16256.5
2023-01-27T08:22:00.664Z,16727.3
2023-01-27T08:23:01.578Z,17235.3
2023-01-27T08:24:00.728Z,17743.3
2023-01-27T08:25:00.719Z,18251.3
2023-01-27T08:26:00.661Z,18797.7
2023-01-27T08:27:00.678Z,19344.2
2023-01-27T08:28:01.536Z,19542.2
2023-01-27T08:29:00.666Z,19740.2
2023-01-27T08:30:01.595Z,19938.2
2023-01-27T08:31:00.760Z,19921.3
2023-01-27T08:32:00.668Z,19904.3
2023-01-27T08:33:01.193Z,19795.2
2023-01-27T08:34:00.673Z,19686.1
2023-01-27T08:35:00.721Z,19576.9
2023-01-27T08:36:00.666Z,19461.5
2023-01-27T08:37:00.694Z,19346.0
2023-01-27T08:38:00.882Z,19111.4
2023-01-27T08:39:00.665Z,18876.8
2023-01-27T08:40:00.720Z,18642.2
2023-01-27T08:41:00.707Z,18327.3
2023-01-27T08:42:00.680Z,18012.3
2023-01-27T08:43:03.986Z,18151.6
2023-01-27T08:44:00.673Z,18290.9
2023-01-27T08:45:01.369Z,18430.1
2023-01-27T08:46:00.842Z,18764.5
2023-01-27T08:47:00.801Z,19098.8
2023-01-27T08:48:00.878Z,19609.9
2023-01-27T08:49:00.673Z,20120.9
2023-01-27T08:50:00.702Z,20632.0
2023-01-27T08:51:00.684Z,21216.5
2023-01-27T08:52:00.675Z,21800.9
2023-01-27T08:53:01.536Z,22360.6
2023-01-27T08:54:00.674Z,22920.3
2023-01-27T08:55:01.201Z,23479.9
2023-01-27T08:56:00.667Z,23952.3
2023-01-27T08:57:00.675Z,24424.6
2023-01-27T08:58:01.659Z,24825.3
2023-01-27T08:59:00.666Z,25225.9
2023-01-27T09:00:07.549Z,25626.6
2023-01-27T09:01:00.745Z,26239.1
2023-01-27T09:02:00.687Z,26851.7
2023-01-27T09:03:01.177Z,27722.7
2023-01-27T09:04:00.675Z,28593.8
2023-01-27T09:05:00.693Z,29464.9
2023-01-27T09:06:00.985Z,30105.0
2023-01-27T09:07:00.971Z,30745.1
2023-01-27T09:08:01.171Z,31286.7
2023-01-27T09:09:00.683Z,31828.2
2023-01-27T09:10:13.493Z,32369.7
2023-01-27T09:11:00.714Z,32825.9
2023-01-27T09:12:00.677Z,33282.1
2023-01-27T09:13:01.723Z,33631.1
2023-01-27T09:14:00.676Z,33980.1
2023-01-27T09:15:06.321Z,34329.1
2023-01-27T09:16:00.727Z,34470.4
2023-01-27T09:17:00.736Z,34611.7
2023-01-27T09:18:00.910Z,34842.2
2023-01-27T09:19:00.704Z,35072.7
2023-01-27T09:20:01.717Z,35303.3
2023-01-27T09:21:00.721Z,35762.2
2023-01-27T09:22:00.684Z,36221.1
2023-01-27T09:23:01.591Z,38311.7
2023-01-27T09:24:00.768Z,40402.2
2023-01-27T09:25:00.695Z,42492.7
2023-01-27T09:26:01.245Z,43369.7
2023-01-27T09:27:01.122Z,44246.7
2023-01-27T09:28:00.888Z,45160.5
2023-01-27T09:29:00.687Z,46074.3
2023-01-27T09:30:01.571Z,46988.1
2023-01-27T09:31:00.762Z,48384.9
2023-01-27T09:32:00.723Z,49781.6
2023-01-27T09:33:01.069Z,51080.7
2023-01-27T09:34:00.676Z,52379.7
2023-01-27T09:35:01.341Z,53678.8
2023-01-27T09:36:00.728Z,55170.0
2023-01-27T09:37:00.725Z,56661.2
2023-01-27T09:41:00.716Z,57964.8
2023-01-27T09:42:00.690Z,59268.4
2023-01-27T09:43:00.693Z,60291.0
2023-01-27T09:44:00.682Z,61313.6
2023-01-27T09:45:02.227Z,62336.2
2023-01-27T09:46:00.754Z,62675.9
2023-01-27T09:47:00.696Z,63015.5
2023-01-27T09:48:00.692Z,63337.3
2023-01-27T09:49:00.706Z,63659.0
2023-01-27T09:50:00.911Z,63980.7
2023-01-27T09:51:02.167Z,63994.4
2023-01-27T09:52:00.695Z,64008.1
2023-01-27T09:58:01.029Z,64255.4
2023-01-27T09:59:05.736Z,64502.7
2023-01-27T10:00:01.332Z,64750.1
2023-01-27T10:01:00.690Z,65142.5
2023-01-27T10:02:00.727Z,65535.0
2023-01-27T10:13:00.844Z,65022.6
2023-01-27T10:14:00.700Z,64510.2
2023-01-27T10:15:06.803Z,63997.8
2023-01-27T10:23:00.796Z,63549.2
2023-01-27T10:24:00.786Z,63100.6
2023-01-27T10:25:01.119Z,62652.0
2023-01-27T10:26:00.700Z,62531.1
2023-01-27T10:27:00.695Z,62410.3
2023-01-27T10:28:00.741Z,62575.0
2023-01-27T10:29:00.730Z,62739.7
2023-01-27T10:30:02.442Z,62904.5
2023-01-27T10:31:00.708Z,62211.7
2023-01-27T10:32:00.771Z,61518.9
2023-01-27T10:33:00.735Z,60530.3
2023-01-27T10:34:00.771Z,59541.7
2023-01-27T10:35:02.655Z,58553.1
2023-01-27T10:36:00.703Z,57377.0
2023-01-27T10:37:05.700Z,56200.9
2023-01-27T10:38:00.747Z,55365.5
2023-01-27T10:39:05.777Z,54530.1
2023-01-27T10:40:02.025Z,53694.7
2023-01-27T10:41:00.767Z,52816.1
2023-01-27T10:42:00.709Z,51937.5
2023-01-27T10:43:00.856Z,51784.7
2023-01-27T10:44:00.765Z,51631.9
2023-01-27T10:45:18.162Z,51479.1
2023-01-27T10:46:00.831Z,51769.9
2023-01-27T10:47:00.883Z,52060.6
2023-01-27T10:48:00.843Z,52478.7
2023-01-27T11:05:02.231Z,63543.0
2023-01-27T11:06:02.176Z,64255.5
2023-01-27T11:07:01.130Z,64493.0
2023-01-27T11:08:01.071Z,64753.5
2023-01-27T11:09:01.093Z,64909.8
2023-01-27T11:10:02.119Z,65014.0
2023-01-27T11:11:01.096Z,65088.4
2023-01-27T11:12:01.149Z,65144.3
2023-01-27T11:13:01.093Z,65031.9
2023-01-27T11:14:01.121Z,64942.0
2023-01-27T11:15:01.913Z,64868.5
2023-01-27T11:16:01.129Z,64546.7
2023-01-27T11:17:01.073Z,64274.4
2023-01-27T11:18:01.077Z,64326.7
2023-01-27T11:19:01.121Z,64372.1
2023-01-27T11:20:01.920Z,64469.7
2023-01-27T11:21:01.097Z,64507.5
2023-01-27T11:22:07.988Z,64545.3
2023-01-27T11:28:02.127Z,64216.0
2023-01-27T11:29:01.112Z,63886.7
2023-01-27T11:30:01.948Z,63557.5
2023-01-27T11:31:01.090Z,63406.3
2023-01-27T11:32:01.135Z,63255.1
2023-01-27T11:33:01.545Z,63290.3
2023-01-27T11:34:01.079Z,63325.5
2023-01-27T11:35:01.798Z,63360.7
2023-01-27T11:43:01.678Z,63783.4
2023-01-27T11:44:01.332Z,64206.1
2023-01-27T11:45:01.966Z,64628.9
2023-01-27T11:46:01.403Z,65081.9
2023-01-27T11:47:01.556Z,65535.0
2023-01-27T12:00:05.978Z,65535.0
2023-01-27T12:15:04.014Z,65535.0
2023-01-27T12:30:03.068Z,65535.0
2023-01-27T12:38:01.507Z,65053.8
2023-01-27T12:39:01.393Z,64572.6
2023-01-27T12:40:01.118Z,64091.4
2023-01-27T12:45:02.904Z,64091.4
2023-01-27T12:53:01.199Z,64572.6
2023-01-27T12:54:01.382Z,65053.8
2023-01-27T12:55:07.096Z,65535.0
2023-01-27T13:00:03.379Z,65535.0
2023-01-27T13:15:04.107Z,65535.0
2023-01-27T13:30:02.054Z,65535.0
2023-01-27T13:45:02.447Z,65535.0
2023-01-27T14:00:18.567Z,65535.0
2023-01-27T14:15:02.548Z,65535.0
2023-01-27T14:19:02.206Z,64906.1
2023-01-27T14:20:01.535Z,64277.1
2023-01-27T14:21:01.121Z,62662.1
2023-01-27T14:22:01.126Z,61047.1
2023-01-27T14:23:01.196Z,59432.1
2023-01-27T14:24:01.216Z,57514.7
2023-01-27T14:25:02.175Z,55597.3
2023-01-27T14:27:01.181Z,54060.7
2023-01-27T14:28:01.127Z,52524.0
2023-01-27T14:29:01.132Z,50819.6
2023-01-27T14:30:01.129Z,49115.2
2023-01-27T14:31:09.180Z,46998.5
2023-01-27T14:32:01.199Z,44881.7
2023-01-27T14:33:01.118Z,42765.0
2023-01-27T14:34:01.153Z,40338.1
2023-01-27T14:35:01.154Z,38540.2
2023-01-27T14:36:02.057Z,36580.7
2023-01-27T14:37:01.121Z,35607.2
2023-01-27T14:38:02.209Z,34633.7
2023-01-27T14:39:01.149Z,33507.1
2023-01-27T14:40:01.112Z,32682.9
2023-01-27T14:41:01.342Z,31743.7
2023-01-27T14:42:01.107Z,30423.7
2023-01-27T14:43:01.181Z,29103.7
2023-01-27T14:44:01.228Z,27916.7
2023-01-27T14:45:03.534Z,26729.8
2023-01-27T14:46:03.213Z,25899.3
2023-01-27T14:47:01.175Z,25068.7
2023-01-27T14:48:01.372Z,24238.2
2023-01-27T14:49:01.140Z,23711.9
2023-01-27T14:50:01.122Z,23185.7
2023-01-27T14:51:02.241Z,22793.5
2023-01-27T14:52:01.108Z,22401.4
2023-01-27T14:53:01.114Z,22009.3
2023-01-27T14:54:01.150Z,21807.5
2023-01-27T14:55:01.115Z,21605.8
2023-01-27T14:56:10.636Z,21547.5
2023-01-27T14:57:01.138Z,21489.3
2023-01-27T14:58:01.391Z,21431.0
2023-01-27T14:59:01.146Z,21267.4
2023-01-27T15:00:01.119Z,21103.8
2023-01-27T15:01:03.312Z,20910.4
2023-01-27T15:02:02.222Z,20717.0
2023-01-27T15:03:01.426Z,20523.6
2023-01-27T15:04:01.364Z,20289.6
2023-01-27T15:05:01.115Z,20055.6
2023-01-27T15:06:13.407Z,19846.2
2023-01-27T15:07:06.186Z,19636.8
2023-01-27T15:08:01.156Z,19427.4
2023-01-27T15:09:01.146Z,19170.0
2023-01-27T15:10:01.127Z,18912.6
2023-01-27T15:11:02.596Z,18624.4
2023-01-27T15:12:01.116Z,18336.2
2023-01-27T15:13:02.139Z,18048.0
2023-01-27T15:14:01.152Z,17824.7
2023-01-27T15:15:01.119Z,17601.5
2023-01-27T15:16:02.789Z,17366.7
2023-01-27T15:17:01.117Z,17132.0
2023-01-27T15:18:01.248Z,16897.3
2023-01-27T15:19:01.267Z,16628.9
2023-01-27T15:20:01.185Z,16360.6
2023-01-27T15:21:03.732Z,16021.6
2023-01-27T15:22:01.231Z,15682.6
2023-01-27T15:23:01.135Z,15343.6
2023-01-27T15:24:01.312Z,14957.1
2023-01-27T15:25:01.190Z,14570.5
2023-01-27T15:26:02.024Z,14110.3
2023-01-27T15:28:01.107Z,13650.1
2023-01-27T15:29:01.107Z,13117.3
2023-01-27T15:30:01.126Z,12659.5
2023-01-27T15:31:01.196Z,12116.3
2023-01-27T15:32:02.726Z,11670.3
2023-01-27T15:33:01.113Z,11224.3
2023-01-27T15:34:01.107Z,10709.1
2023-01-27T15:35:01.278Z,10273.9
2023-01-27T15:36:01.110Z,9782.9
2023-01-27T15:37:02.028Z,9365.5
2023-01-27T15:38:01.199Z,8948.0
2023-01-27T15:39:01.402Z,8474.1
2023-01-27T15:40:04.720Z,8058.4
2023-01-27T15:41:01.115Z,7595.5
2023-01-27T15:42:02.088Z,7208.7
2023-01-27T15:43:01.119Z,6821.9
2023-01-27T15:44:01.111Z,6463.9
2023-01-27T15:45:01.134Z,6105.8
2023-01-27T15:46:01.159Z,5798.9
2023-01-27T15:47:02.489Z,5491.9
2023-01-27T15:48:01.114Z,5185.0
2023-01-27T15:49:01.506Z,4910.4
2023-01-27T15:50:01.169Z,4635.8
2023-01-27T15:51:01.410Z,4377.9
2023-01-27T15:52:01.960Z,4119.9
2023-01-27T15:53:01.386Z,3862.0
2023-01-27T15:54:01.136Z,3634.4
2023-01-27T15:55:01.275Z,3406.8
2023-01-27T15:56:01.414Z,3203.1
2023-01-27T15:57:02.230Z,2999.5
2023-01-27T15:58:01.122Z,2795.8
2023-01-27T15:59:01.110Z,2614.4
2023-01-27T16:00:01.172Z,2433.0
2023-01-27T16:01:01.290Z,2265.1
2023-01-27T16:02:01.426Z,2097.3
2023-01-27T16:03:01.244Z,1929.4
2023-01-27T16:04:01.135Z,1781.0
2023-01-27T16:05:01.549Z,1632.6
2023-01-27T16:06:01.200Z,1509.8
2023-01-27T16:07:03.973Z,1387.0
2023-01-27T16:08:01.117Z,1264.2
2023-01-27T16:09:02.137Z,1156.9
2023-01-27T16:10:01.290Z,1049.5
2023-01-27T16:11:01.249Z,956.4
2023-01-27T16:12:01.924Z,863.3
2023-01-27T16:13:01.119Z,770.1
2023-01-27T16:14:01.121Z,691.4
2023-01-27T16:15:02.214Z,612.7
2023-01-27T16:16:01.153Z,549.5
2023-01-27T16:17:02.185Z,486.4
2023-01-27T16:18:01.166Z,423.3
2023-01-27T16:19:01.120Z,374.4
2023-01-27T16:20:01.159Z,325.5
2023-01-27T16:21:01.197Z,288.3
2023-01-27T16:22:01.942Z,251.1
2023-01-27T16:23:01.132Z,213.9
2023-01-27T16:24:01.154Z,186.0
2023-01-27T16:25:01.134Z,158.1
2023-01-27T16:26:01.143Z,138.2
2023-01-27T16:27:02.035Z,118.3
2023-01-27T16:28:01.186Z,98.5
2023-01-27T16:29:01.130Z,85.1
2023-01-27T16:30:01.146Z,71.8
2023-01-27T16:31:01.134Z,63.1
2023-01-27T16:32:02.853Z,54.5
2023-01-27T16:33:01.199Z,45.8
2023-01-27T16:34:01.114Z,39.9
2023-01-27T16:35:01.148Z,34.1
2023-01-27T16:36:01.186Z,29.9
2023-01-27T16:37:02.030Z,25.8
2023-01-27T16:38:01.203Z,21.7
2023-01-27T16:39:01.125Z,18.8
2023-01-27T16:40:01.151Z,15.9
2023-01-27T16:41:01.115Z,13.9
2023-01-27T16:42:02.328Z,11.9
2023-01-27T16:43:01.120Z,9.9
2023-01-27T16:44:01.134Z,8.6
2023-01-27T16:45:01.140Z,7.3
2023-01-27T16:46:01.295Z,6.4
2023-01-27T16:47:17.713Z,5.5
2023-01-27T16:48:01.371Z,4.7
2023-01-27T16:49:01.212Z,4.1
2023-01-27T16:50:01.250Z,3.5
2023-01-27T16:51:01.115Z,3.1
2023-01-27T16:52:02.606Z,2.7
2023-01-27T16:53:01.116Z,2.3
2023-01-27T16:54:01.119Z,2.0
2023-01-27T16:55:01.192Z,1.7
2023-01-27T16:56:01.116Z,1.5
2023-01-27T16:57:01.591Z,1.3
2023-01-27T16:58:01.146Z,1.1
2023-01-27T16:59:01.140Z,1.0
2023-01-27T17:00:01.160Z,0.9
2023-01-27T17:01:01.155Z,0.7
2023-01-27T17:02:01.921Z,0.6
2023-01-27T17:04:10.921Z,0.5
2023-01-27T17:05:02.513Z,0.4
2023-01-27T17:06:01.122Z,0.3
2023-01-27T17:08:02.548Z,0.2
2023-01-27T17:09:01.115Z,0.1
